createdAt,value
2018-09-12T00:01:11.806Z,19.10
2018-09-12T00:03:40.138Z,19.10
2018-09-12T00:06:08.354Z,19.10
2018-09-12T00:08:36.602Z,19.10
2018-09-12T00:11:04.839Z,19.10
2018-09-12T00:13:33.073Z,19.10
2018-09-12T00:16:01.777Z,19.00
2018-09-12T00:18:29.993Z,19.10
2018-09-12T00:20:58.262Z,19.00
2018-09-12T00:23:26.910Z,19.00
2018-09-12T00:25:55.124Z,19.00
2018-09-12T00:28:23.337Z,19.00
2018-09-12T00:30:52.209Z,19.00
2018-09-12T00:33:20.419Z,19.00
2018-09-12T00:35:48.599Z,19.00
2018-09-12T00:38:17.006Z,18.90
2018-09-12T00:40:45.231Z,19.00
2018-09-12T00:43:13.417Z,19.00
2018-09-12T00:45:42.183Z,19.00
2018-09-12T00:48:10.370Z,18.90
2018-09-12T00:50:38.569Z,18.90
2018-09-12T00:53:07.166Z,18.90
2018-09-12T00:55:35.382Z,18.90
2018-09-12T00:58:03.563Z,19.00
2018-09-12T01:00:31.774Z,18.90
2018-09-12T01:02:59.977Z,18.90
2018-09-12T01:05:28.294Z,18.90
2018-09-12T01:07:56.522Z,18.90
2018-09-12T01:10:24.765Z,18.90
2018-09-12T01:12:52.995Z,18.90
2018-09-12T01:15:21.650Z,18.90
2018-09-12T01:17:49.877Z,18.90
2018-09-12T01:20:18.100Z,18.90
2018-09-12T01:22:46.328Z,18.90
2018-09-12T01:25:14.549Z,18.80
2018-09-12T01:27:42.767Z,18.90
2018-09-12T01:30:15.229Z,18.80
2018-09-12T01:32:43.434Z,18.80
2018-09-12T01:35:11.758Z,18.80
2018-09-12T01:37:39.982Z,18.80
2018-09-12T01:40:08.205Z,18.80
2018-09-12T01:42:36.417Z,18.70
2018-09-12T01:45:05.027Z,18.70
2018-09-12T01:47:33.230Z,18.70
2018-09-12T01:50:01.437Z,18.70
2018-09-12T01:52:29.685Z,18.70
2018-09-12T01:54:57.970Z,18.60
2018-09-12T01:57:26.214Z,18.60
2018-09-12T01:59:54.445Z,18.60
2018-09-12T02:02:22.661Z,18.70
2018-09-12T02:04:50.858Z,18.60
2018-09-12T02:07:19.754Z,18.50
2018-09-12T02:09:47.998Z,18.50
2018-09-12T02:12:16.202Z,18.60
2018-09-12T02:14:45.224Z,18.60
2018-09-12T02:17:13.435Z,18.60
2018-09-12T02:19:41.638Z,18.50
2018-09-12T02:22:10.354Z,18.50
2018-09-12T02:24:38.858Z,18.50
2018-09-12T02:27:07.077Z,18.40
2018-09-12T02:29:35.702Z,18.50
2018-09-12T02:32:03.929Z,18.50
2018-09-12T02:34:32.130Z,18.50
2018-09-12T02:37:00.714Z,18.40
2018-09-12T02:39:28.918Z,18.50
2018-09-12T02:41:57.138Z,18.40
2018-09-12T02:44:26.070Z,18.50
2018-09-12T02:46:54.281Z,18.50
2018-09-12T02:49:22.504Z,18.50
2018-09-12T02:51:51.209Z,18.50
2018-09-12T02:54:19.429Z,18.50
2018-09-12T02:56:47.654Z,18.50
2018-09-12T02:59:16.592Z,18.50
2018-09-12T03:01:44.794Z,18.40
2018-09-12T03:04:13.037Z,18.50
2018-09-12T03:06:41.626Z,18.50
2018-09-12T03:09:10.718Z,18.60
2018-09-12T03:11:38.997Z,18.50
2018-09-12T03:14:07.238Z,18.60
2018-09-12T03:16:35.478Z,18.60
2018-09-12T03:19:03.694Z,18.60
2018-09-12T03:21:31.934Z,18.60
2018-09-12T03:24:00.160Z,18.60
2018-09-12T03:26:28.536Z,18.50
2018-09-12T03:28:57.205Z,18.50
2018-09-12T03:31:25.402Z,18.50
2018-09-12T03:33:53.590Z,18.60
2018-09-12T03:36:22.341Z,18.60
2018-09-12T03:38:50.548Z,18.60
2018-09-12T03:41:18.801Z,18.60
2018-09-12T03:43:47.477Z,18.50
2018-09-12T03:46:15.688Z,18.60
2018-09-12T03:48:43.878Z,18.60
2018-09-12T03:51:12.115Z,18.60
2018-09-12T03:53:40.337Z,18.60
2018-09-12T03:56:08.559Z,18.70
2018-09-12T03:58:37.142Z,18.60
2018-09-12T04:01:05.582Z,18.70
2018-09-12T04:03:33.799Z,18.70
2018-09-12T04:06:02.566Z,18.70
2018-09-12T04:08:30.842Z,18.70
2018-09-12T04:10:59.233Z,18.70
2018-09-12T04:13:27.737Z,18.70
2018-09-12T04:15:55.942Z,18.70
2018-09-12T04:18:24.142Z,18.60
2018-09-12T04:20:52.433Z,18.70
2018-09-12T04:23:20.657Z,18.70
2018-09-12T04:25:48.858Z,18.70
2018-09-12T04:28:17.074Z,18.70
2018-09-12T04:30:45.490Z,18.70
2018-09-12T04:33:14.032Z,18.70
2018-09-12T04:35:42.245Z,18.70
2018-09-12T04:38:10.475Z,18.60
2018-09-12T04:40:38.750Z,18.70
2018-09-12T04:43:07.868Z,18.70
2018-09-12T04:45:36.131Z,18.60
2018-09-12T04:48:04.317Z,18.60
2018-09-12T04:50:33.726Z,18.60
2018-09-12T04:53:02.794Z,18.60
2018-09-12T04:55:31.208Z,18.60
2018-09-12T04:57:59.502Z,18.50
2018-09-12T05:00:27.741Z,18.50
2018-09-12T05:02:55.961Z,18.50
2018-09-12T05:05:24.275Z,18.40
2018-09-12T05:07:52.458Z,18.40
2018-09-12T05:10:20.693Z,18.40
2018-09-12T05:12:53.760Z,18.40
2018-09-12T05:15:22.949Z,18.40
2018-09-12T05:17:51.245Z,18.30
2018-09-12T05:20:19.861Z,18.30
2018-09-12T05:22:48.069Z,18.30
2018-09-12T05:25:16.323Z,18.30
2018-09-12T05:27:44.951Z,18.40
2018-09-12T05:30:13.181Z,18.30
2018-09-12T05:32:41.442Z,18.40
2018-09-12T05:35:10.447Z,18.40
2018-09-12T05:37:38.669Z,18.40
2018-09-12T05:40:07.054Z,18.40
2018-09-12T05:42:35.737Z,18.40
2018-09-12T05:45:03.939Z,18.40
2018-09-12T05:47:32.146Z,18.40
2018-09-12T05:50:00.436Z,18.40
2018-09-12T05:52:28.625Z,18.40
2018-09-12T05:54:56.810Z,18.40
2018-09-12T05:57:25.769Z,18.40
2018-09-12T05:59:53.954Z,18.40
2018-09-12T06:02:22.155Z,18.40
2018-09-12T06:04:50.751Z,18.50
2018-09-12T06:07:21.299Z,18.50
2018-09-12T06:09:49.450Z,18.50
2018-09-12T06:12:17.954Z,18.50
2018-09-12T06:14:46.278Z,18.50
2018-09-12T06:17:14.474Z,18.50
2018-09-12T06:19:43.055Z,18.50
2018-09-12T06:22:11.277Z,18.40
2018-09-12T06:24:39.503Z,18.50
2018-09-12T06:27:07.742Z,18.50
2018-09-12T06:29:36.058Z,18.50
2018-09-12T06:32:04.287Z,18.50
2018-09-12T06:34:32.979Z,18.50
2018-09-12T06:37:01.181Z,18.50
2018-09-12T06:39:29.374Z,18.50
2018-09-12T06:41:57.590Z,18.60
2018-09-12T06:44:25.838Z,18.60
2018-09-12T06:46:54.029Z,18.60
2018-09-12T06:49:22.231Z,18.60
2018-09-12T06:51:50.405Z,18.70
2018-09-12T06:54:18.586Z,18.70
2018-09-12T06:56:47.205Z,18.70
2018-09-12T06:59:15.507Z,18.70
2018-09-12T07:01:43.700Z,18.70
2018-09-12T07:04:12.349Z,18.80
2018-09-12T07:06:40.540Z,18.80
2018-09-12T07:09:09.545Z,18.90
2018-09-12T07:11:37.809Z,18.90
2018-09-12T07:14:06.175Z,18.80
2018-09-12T07:16:34.509Z,18.70
2018-09-12T07:19:03.027Z,18.70
2018-09-12T07:21:31.283Z,18.60
2018-09-12T07:23:59.481Z,18.40
2018-09-12T07:26:28.241Z,18.20
2018-09-12T07:28:56.428Z,18.10
2018-09-12T07:31:24.628Z,18.00
2018-09-12T07:33:53.080Z,17.90
2018-09-12T07:36:21.371Z,17.70
2018-09-12T07:38:49.579Z,17.60
2018-09-12T07:41:19.188Z,17.60
2018-09-12T07:43:47.962Z,17.50
2018-09-12T07:46:16.526Z,17.40
2018-09-12T07:48:44.981Z,17.40
2018-09-12T07:51:13.198Z,17.10
2018-09-12T07:53:41.445Z,16.80
2018-09-12T07:56:10.307Z,16.70
2018-09-12T07:58:38.498Z,16.50
2018-09-12T08:01:06.693Z,16.50
2018-09-12T08:03:35.212Z,16.40
2018-09-12T08:06:03.398Z,16.40
2018-09-12T08:08:31.626Z,16.50
2018-09-12T08:11:00.431Z,16.40
2018-09-12T08:13:28.619Z,16.50
2018-09-12T08:15:56.828Z,16.50
2018-09-12T08:18:28.685Z,16.60
2018-09-12T08:20:56.869Z,16.50
2018-09-12T08:23:25.042Z,16.40
2018-09-12T08:25:53.673Z,16.40
2018-09-12T08:28:21.865Z,16.30
2018-09-12T08:30:50.061Z,16.30
2018-09-12T08:33:18.880Z,16.20
2018-09-12T08:35:47.839Z,16.30
2018-09-12T08:38:16.308Z,16.30
2018-09-12T08:40:45.058Z,16.30
2018-09-12T08:43:13.476Z,16.40
2018-09-12T08:45:41.745Z,16.40
2018-09-12T08:48:10.271Z,16.30
2018-09-12T08:50:38.476Z,16.30
2018-09-12T08:53:06.695Z,16.30
2018-09-12T08:55:34.998Z,16.20
2018-09-12T08:58:03.205Z,16.20
2018-09-12T09:00:34.704Z,16.20
2018-09-12T09:03:04.674Z,16.10
2018-09-12T09:05:32.896Z,16.00
2018-09-12T09:08:01.094Z,16.20
2018-09-12T09:10:29.353Z,16.20
2018-09-12T09:12:57.954Z,16.30
2018-09-12T09:15:26.915Z,16.40
2018-09-12T09:17:55.331Z,16.30
2018-09-12T09:20:23.721Z,16.10
2018-09-12T09:22:51.965Z,16.10
2018-09-12T09:25:20.362Z,16.20
2018-09-12T09:27:48.829Z,16.20
2018-09-12T09:30:17.007Z,16.20
2018-09-12T09:32:45.904Z,16.20
2018-09-12T09:35:14.154Z,16.30
2018-09-12T09:37:42.278Z,16.40
2018-09-12T09:40:11.386Z,16.50
2018-09-12T09:42:39.616Z,16.50
2018-09-12T09:45:08.301Z,16.50
2018-09-12T09:47:37.100Z,16.30
2018-09-12T09:50:05.328Z,16.30
2018-09-12T09:52:33.540Z,16.40
2018-09-12T09:55:01.843Z,16.40
2018-09-12T09:57:30.057Z,16.70
2018-09-12T09:59:58.265Z,16.70
2018-09-12T10:02:31.811Z,17.10
2018-09-12T10:05:02.955Z,17.10
2018-09-12T10:07:37.930Z,17.30
2018-09-12T10:10:07.058Z,17.20
2018-09-12T10:12:35.738Z,16.90
2018-09-12T10:15:05.060Z,17.10
2018-09-12T10:17:34.226Z,16.90
2018-09-12T10:20:02.430Z,17.20
2018-09-12T10:22:31.653Z,17.50
2018-09-12T10:24:59.929Z,17.40
2018-09-12T10:27:28.231Z,17.50
2018-09-12T10:29:56.453Z,17.70
2018-09-12T10:32:24.645Z,17.50
2018-09-12T10:34:52.822Z,17.60
2018-09-12T10:37:21.132Z,17.40
2018-09-12T10:39:49.327Z,17.50
2018-09-12T10:42:17.509Z,17.10
2018-09-12T10:44:46.066Z,16.90
2018-09-12T10:47:14.296Z,16.80
2018-09-12T10:49:42.514Z,17.00
2018-09-12T10:52:11.194Z,16.80
2018-09-12T10:54:39.398Z,16.90
2018-09-12T10:57:07.621Z,16.90
2018-09-12T10:59:36.547Z,16.90
2018-09-12T11:02:04.753Z,17.00
2018-09-12T11:04:32.959Z,17.10
2018-09-12T11:07:01.178Z,17.00
2018-09-12T11:09:29.355Z,17.10
2018-09-12T11:11:57.553Z,17.20
2018-09-12T11:14:26.161Z,17.10
2018-09-12T11:16:54.350Z,17.10
2018-09-12T11:19:22.540Z,17.00
2018-09-12T11:21:51.753Z,17.20
2018-09-12T11:24:19.998Z,17.20
2018-09-12T11:26:48.189Z,17.10
2018-09-12T11:29:16.894Z,17.10
2018-09-12T11:31:45.101Z,17.10
2018-09-12T11:34:13.302Z,17.20
2018-09-12T11:36:42.027Z,17.20
2018-09-12T11:39:11.374Z,17.20
2018-09-12T11:41:39.658Z,17.30
2018-09-12T11:44:07.877Z,17.20
2018-09-12T11:46:36.144Z,17.30
2018-09-12T11:49:04.396Z,17.40
2018-09-12T11:51:32.767Z,17.40
2018-09-12T11:54:01.177Z,17.50
2018-09-12T11:56:29.398Z,17.50
2018-09-12T11:58:58.226Z,17.60
2018-09-12T12:01:26.421Z,17.30
2018-09-12T12:03:54.672Z,17.40
2018-09-12T12:06:23.556Z,17.40
2018-09-12T12:08:51.741Z,17.10
2018-09-12T12:11:19.938Z,17.10
2018-09-12T12:13:48.166Z,17.30
2018-09-12T12:16:16.365Z,17.30
2018-09-12T12:18:44.695Z,17.30
2018-09-12T12:21:12.920Z,17.30
2018-09-12T12:23:41.113Z,17.50
2018-09-12T12:26:09.614Z,17.60
2018-09-12T12:28:38.298Z,17.60
2018-09-12T12:31:06.521Z,17.40
2018-09-12T12:33:34.734Z,17.20
2018-09-12T12:36:03.746Z,17.30
2018-09-12T12:38:31.941Z,17.30
2018-09-12T12:41:00.154Z,17.30
2018-09-12T12:43:28.888Z,17.50
2018-09-12T12:45:57.117Z,17.80
2018-09-12T12:48:25.338Z,17.90
2018-09-12T12:50:53.649Z,18.00
2018-09-12T12:53:21.885Z,17.80
2018-09-12T12:55:50.117Z,17.80
2018-09-12T12:58:18.384Z,18.10
2018-09-12T13:00:46.585Z,18.30
2018-09-12T13:03:14.782Z,18.60
2018-09-12T13:05:43.718Z,18.70
2018-09-12T13:08:11.910Z,18.80
2018-09-12T13:10:40.102Z,18.70
2018-09-12T13:13:08.601Z,18.60
2018-09-12T13:15:36.799Z,18.40
2018-09-12T13:18:05.038Z,18.20
2018-09-12T13:20:33.413Z,18.10
2018-09-12T13:23:01.621Z,17.80
2018-09-12T13:25:29.911Z,17.70
2018-09-12T13:27:58.754Z,17.60
2018-09-12T13:30:26.918Z,17.60
2018-09-12T13:32:55.131Z,17.80
2018-09-12T13:35:23.393Z,18.00
2018-09-12T13:37:51.585Z,18.20
2018-09-12T13:40:19.774Z,18.40
2018-09-12T13:42:47.993Z,18.50
2018-09-12T13:45:16.215Z,18.50
2018-09-12T13:47:44.726Z,18.50
2018-09-12T13:50:16.002Z,18.40
2018-09-12T13:52:45.073Z,18.40
2018-09-12T13:55:13.273Z,18.40
2018-09-12T13:57:41.566Z,18.20
2018-09-12T14:00:09.829Z,17.90
2018-09-12T14:02:38.053Z,17.80
2018-09-12T14:05:06.825Z,17.70
2018-09-12T14:07:37.471Z,17.60
2018-09-12T14:10:06.014Z,17.70
2018-09-12T14:12:34.229Z,17.80
2018-09-12T14:15:02.418Z,17.80
2018-09-12T14:17:30.820Z,17.80
2018-09-12T14:19:59.350Z,17.80
2018-09-12T14:22:27.528Z,17.80
2018-09-12T14:24:55.735Z,17.90
2018-09-12T14:27:23.933Z,18.10
2018-09-12T14:29:52.197Z,18.10
2018-09-12T14:32:20.441Z,18.10
2018-09-12T14:34:48.741Z,18.30
2018-09-12T14:37:17.102Z,18.50
2018-09-12T14:39:45.325Z,18.60
2018-09-12T14:42:13.558Z,18.50
2018-09-12T14:44:41.746Z,18.50
2018-09-12T14:47:09.926Z,18.50
2018-09-12T14:49:38.694Z,18.60
2018-09-12T14:52:06.874Z,18.80
2018-09-12T14:54:35.071Z,18.60
2018-09-12T14:57:03.826Z,18.40
2018-09-12T14:59:32.025Z,18.40
2018-09-12T15:02:00.209Z,18.20
2018-09-12T15:04:28.403Z,18.10
2018-09-12T15:06:56.593Z,18.10
2018-09-12T15:09:24.832Z,18.00
2018-09-12T15:11:53.485Z,17.90
2018-09-12T15:14:21.691Z,17.80
2018-09-12T15:16:49.877Z,17.70
2018-09-12T15:19:18.501Z,17.70
2018-09-12T15:21:46.718Z,17.70
2018-09-12T15:24:14.953Z,17.70
2018-09-12T15:26:43.787Z,17.60
2018-09-12T15:29:11.986Z,17.50
2018-09-12T15:31:40.735Z,17.40
2018-09-12T15:34:09.069Z,17.40
2018-09-12T15:36:37.253Z,17.40
2018-09-12T15:39:07.815Z,17.50
2018-09-12T15:41:36.615Z,17.60
2018-09-12T15:44:04.895Z,17.60
2018-09-12T15:46:34.106Z,17.60
2018-09-12T15:49:02.649Z,17.50
2018-09-12T15:51:30.842Z,17.40
2018-09-12T15:53:59.029Z,17.40
2018-09-12T15:56:28.001Z,17.40
2018-09-12T15:58:56.212Z,17.40
2018-09-12T16:01:24.409Z,17.40
2018-09-12T16:03:52.674Z,17.40
2018-09-12T16:06:20.839Z,17.40
2018-09-12T16:08:49.041Z,17.30
2018-09-12T16:11:17.334Z,17.30
2018-09-12T16:16:08.626Z,17.20
2018-09-12T16:18:37.450Z,17.00
2018-09-12T16:21:05.665Z,17.00
2018-09-12T16:23:33.881Z,17.10
2018-09-12T16:26:02.409Z,17.20
2018-09-12T16:28:30.611Z,17.10
2018-09-12T16:30:58.797Z,17.10
2018-09-12T16:33:27.409Z,17.10
2018-09-12T16:35:55.601Z,17.10
2018-09-12T16:38:23.799Z,17.00
2018-09-12T16:40:52.026Z,17.10
2018-09-12T16:43:20.214Z,16.90
2018-09-12T16:45:48.450Z,16.90
2018-09-12T16:48:17.357Z,17.00
2018-09-12T16:50:45.619Z,17.00
2018-09-12T16:53:13.738Z,17.00
2018-09-12T16:55:41.965Z,17.00
2018-09-12T16:58:10.161Z,17.00
2018-09-12T17:00:38.357Z,16.90
2018-09-12T17:03:06.605Z,16.80
2018-09-12T17:05:34.787Z,16.70
2018-09-12T17:08:03.074Z,16.70
2018-09-12T17:10:31.413Z,16.70
2018-09-12T17:12:59.597Z,16.60
2018-09-12T17:15:27.777Z,16.50
2018-09-12T17:17:56.391Z,16.40
2018-09-12T17:20:24.573Z,16.40
2018-09-12T17:22:52.768Z,16.40
2018-09-12T17:25:21.389Z,16.30
2018-09-12T17:27:49.598Z,16.30
2018-09-12T17:30:17.795Z,16.20
2018-09-12T17:32:46.497Z,16.20
2018-09-12T17:35:14.759Z,16.20
2018-09-12T17:37:42.977Z,16.10
2018-09-12T17:40:11.189Z,16.20
2018-09-12T17:42:39.382Z,16.10
2018-09-12T17:45:08.025Z,16.10
2018-09-12T17:47:36.703Z,16.10
2018-09-12T17:50:05.067Z,16.20
2018-09-12T17:52:33.311Z,16.10
2018-09-12T17:55:01.519Z,16.10
2018-09-12T17:57:29.713Z,16.00
2018-09-12T17:59:57.917Z,16.00
2018-09-12T18:02:26.178Z,16.00
2018-09-12T18:04:56.202Z,15.90
2018-09-12T18:07:24.411Z,15.90
2018-09-12T18:09:52.837Z,15.90
2018-09-12T18:12:21.041Z,15.80
2018-09-12T18:14:49.253Z,15.70
2018-09-12T18:17:18.465Z,15.80
2018-09-12T18:19:46.699Z,15.80
2018-09-12T18:22:14.878Z,15.80
2018-09-12T18:24:43.106Z,15.80
2018-09-12T18:27:11.334Z,15.80
2018-09-12T18:29:39.535Z,15.80
2018-09-12T18:32:08.838Z,15.70
2018-09-12T18:34:37.166Z,15.60
2018-09-12T18:37:08.087Z,15.40
2018-09-12T18:39:39.849Z,15.50
2018-09-12T18:42:12.403Z,15.50
2018-09-12T18:47:22.555Z,15.50
2018-09-12T18:52:52.190Z,15.30
2018-09-12T18:55:26.786Z,14.90
2018-09-12T18:57:59.277Z,15.10
2018-09-12T19:00:28.610Z,15.20
2018-09-12T19:02:59.481Z,15.20
2018-09-12T19:05:29.255Z,15.20
2018-09-12T19:07:59.363Z,15.20
2018-09-12T19:10:30.838Z,15.00
2018-09-12T19:12:59.732Z,14.80
2018-09-12T19:15:27.853Z,14.90
2018-09-12T19:17:56.498Z,15.00
2018-09-12T19:20:24.777Z,15.10
2018-09-12T19:22:52.963Z,14.90
2018-09-12T19:25:21.204Z,15.00
2018-09-12T19:27:49.399Z,15.10
2018-09-12T19:30:17.572Z,15.10
2018-09-12T19:32:46.319Z,15.10
2018-09-12T19:35:14.530Z,15.00
2018-09-12T19:37:42.838Z,14.90
2018-09-12T19:40:11.070Z,14.90
2018-09-12T19:42:39.263Z,14.90
2018-09-12T19:45:07.441Z,14.90
2018-09-12T19:47:35.637Z,14.90
2018-09-12T19:50:03.830Z,14.90
2018-09-12T19:52:32.021Z,14.80
2018-09-12T19:55:00.910Z,14.80
2018-09-12T19:57:29.088Z,14.80
2018-09-12T19:59:57.318Z,14.80
2018-09-12T20:02:28.142Z,14.90
2018-09-12T20:04:56.874Z,14.80
2018-09-12T20:07:25.106Z,14.80
2018-09-12T20:09:53.857Z,14.70
2018-09-12T20:12:22.939Z,14.60
2018-09-12T20:14:51.169Z,14.70
2018-09-12T20:17:19.642Z,14.70
2018-09-12T20:19:48.023Z,14.80
2018-09-12T20:22:16.229Z,14.90
2018-09-12T20:24:45.156Z,14.90
2018-09-12T20:27:13.341Z,14.90
2018-09-12T20:29:41.569Z,14.80
2018-09-12T20:32:10.126Z,14.90
2018-09-12T20:34:38.352Z,15.00
2018-09-12T20:37:06.541Z,15.00
2018-09-12T20:39:35.046Z,15.00
2018-09-12T20:42:03.262Z,14.90
2018-09-12T20:44:31.458Z,14.80
2018-09-12T20:47:00.653Z,14.90
2018-09-12T20:49:28.869Z,14.80
2018-09-12T20:51:57.055Z,14.80
2018-09-12T20:54:25.284Z,14.70
2018-09-12T20:56:53.473Z,14.70
2018-09-12T20:59:21.722Z,14.70
2018-09-12T21:01:50.346Z,14.70
2018-09-12T21:04:18.527Z,14.70
2018-09-12T21:06:46.725Z,14.60
2018-09-12T21:09:15.370Z,14.70
2018-09-12T21:11:43.550Z,14.70
2018-09-12T21:14:11.734Z,14.60
2018-09-12T21:16:40.307Z,14.60
2018-09-12T21:19:08.536Z,14.70
2018-09-12T21:21:36.754Z,14.70
2018-09-12T21:24:04.965Z,14.60
2018-09-12T21:26:33.158Z,14.50
2018-09-12T21:29:01.339Z,14.50
2018-09-12T21:31:29.533Z,14.40
2018-09-12T21:33:57.753Z,14.60
2018-09-12T21:36:25.933Z,14.60
2018-09-12T21:38:55.001Z,14.50
2018-09-12T21:41:23.265Z,14.60
2018-09-12T21:43:51.449Z,14.50
2018-09-12T21:46:20.197Z,14.60
2018-09-12T21:48:48.394Z,14.50
2018-09-12T21:51:16.584Z,14.60
2018-09-12T21:53:44.929Z,14.60
2018-09-12T21:56:13.128Z,14.70
2018-09-12T21:58:41.325Z,14.70
2018-09-12T22:01:10.130Z,14.60
2018-09-12T22:03:38.346Z,14.60
2018-09-12T22:06:06.591Z,14.60
2018-09-12T22:08:35.354Z,14.70
2018-09-12T22:11:03.550Z,14.70
2018-09-12T22:13:31.739Z,14.70
2018-09-12T22:16:00.641Z,14.70
2018-09-12T22:18:28.883Z,14.70
2018-09-12T22:20:57.086Z,14.60
2018-09-12T22:23:25.591Z,14.60
2018-09-12T22:25:53.778Z,14.60
2018-09-12T22:28:21.978Z,14.60
2018-09-12T22:30:50.656Z,14.60
2018-09-12T22:33:18.841Z,14.60
2018-09-12T22:35:47.028Z,14.60
2018-09-12T22:38:15.237Z,14.60
2018-09-12T22:40:43.439Z,14.60
2018-09-12T22:43:11.758Z,14.60
2018-09-12T22:45:40.018Z,14.60
2018-09-12T22:48:08.207Z,14.50
2018-09-12T22:50:36.397Z,14.50
2018-09-12T22:53:04.941Z,14.50
2018-09-12T22:55:33.153Z,14.50
2018-09-12T22:58:01.355Z,14.50
2018-09-12T23:00:29.642Z,14.60
2018-09-12T23:02:57.863Z,14.60
2018-09-12T23:05:26.107Z,14.50
2018-09-12T23:07:57.105Z,14.50
2018-09-12T23:10:25.293Z,14.50
2018-09-12T23:12:53.483Z,14.60
2018-09-12T23:15:21.690Z,14.60
2018-09-12T23:17:49.901Z,14.60
2018-09-12T23:20:18.088Z,14.60
2018-09-12T23:22:46.426Z,14.60
2018-09-12T23:25:14.610Z,14.60
2018-09-12T23:27:42.821Z,14.50
2018-09-12T23:30:11.590Z,14.50
2018-09-12T23:32:39.805Z,14.50
2018-09-12T23:35:08.003Z,14.50
2018-09-12T23:37:36.420Z,14.50
2018-09-12T23:40:04.651Z,14.50
2018-09-12T23:42:32.864Z,14.50
2018-09-12T23:45:01.827Z,14.40
2018-09-12T23:47:29.977Z,14.20
2018-09-12T23:49:58.206Z,14.30
2018-09-12T23:52:26.487Z,14.30
2018-09-12T23:54:54.729Z,14.30
2018-09-12T23:57:22.941Z,14.20
2018-09-12T23:59:51.202Z,14.20
